createdAt,value
2022-10-05T00:00:47.172Z,72.79
2022-10-05T00:02:19.637Z,72.68
2022-10-05T00:03:51.637Z,72.78
2022-10-05T00:05:26.566Z,72.96
2022-10-05T00:07:00.983Z,72.88
2022-10-05T00:08:34.455Z,72.85
2022-10-05T00:10:11.534Z,72.99
2022-10-05T00:11:43.388Z,72.95
2022-10-05T00:13:16.063Z,73.17
2022-10-05T00:14:48.501Z,73.35
2022-10-05T00:16:20.918Z,73.14
2022-10-05T00:17:52.371Z,73.44
2022-10-05T00:19:30.924Z,73.35
2022-10-05T00:21:02.628Z,73.17
2022-10-05T00:22:34.060Z,73.35
2022-10-05T00:24:09.904Z,73.63
2022-10-05T00:25:41.344Z,73.72
2022-10-05T00:27:15.492Z,73.50
2022-10-05T00:28:47.282Z,73.42
2022-10-05T00:30:20.493Z,73.67
2022-10-05T00:31:53.322Z,73.38
2022-10-05T00:33:25.086Z,73.74
2022-10-05T00:34:58.440Z,73.68
2022-10-05T00:36:29.952Z,73.65
2022-10-05T00:38:01.834Z,73.74
2022-10-05T00:39:36.236Z,73.50
2022-10-05T00:41:11.334Z,73.91
2022-10-05T00:42:49.736Z,73.73
2022-10-05T00:44:30.475Z,73.71
2022-10-05T00:46:07.694Z,73.81
2022-10-05T00:47:45.114Z,73.95
2022-10-05T00:49:22.316Z,73.99
2022-10-05T00:51:09.636Z,73.67
2022-10-05T00:52:45.430Z,73.59
2022-10-05T00:54:21.895Z,73.78
2022-10-05T00:55:57.977Z,73.69
2022-10-05T00:57:34.669Z,73.31
2022-10-05T00:59:11.927Z,73.62
2022-10-05T01:00:50.250Z,73.55
2022-10-05T01:02:26.761Z,73.35
2022-10-05T01:04:04.849Z,73.87
2022-10-05T01:05:47.168Z,73.69
2022-10-05T01:07:25.772Z,73.74
2022-10-05T01:09:02.591Z,73.78
2022-10-05T01:10:36.849Z,74.04
2022-10-05T01:12:14.807Z,74.13
2022-10-05T01:13:51.207Z,74.00
2022-10-05T01:15:26.192Z,74.04
2022-10-05T01:16:59.939Z,74.04
2022-10-05T01:18:39.023Z,73.87
2022-10-05T01:20:15.414Z,74.18
2022-10-05T01:21:52.006Z,74.08
2022-10-05T01:23:35.633Z,74.28
2022-10-05T01:25:17.916Z,74.45
2022-10-05T01:27:01.765Z,74.52
2022-10-05T01:28:35.677Z,74.58
2022-10-05T01:30:10.943Z,74.65
2022-10-05T01:31:45.663Z,74.70
2022-10-05T01:33:20.133Z,74.52
2022-10-05T01:34:54.446Z,74.60
2022-10-05T01:36:32.005Z,74.96
2022-10-05T01:38:12.487Z,74.82
2022-10-05T01:39:47.261Z,75.31
2022-10-05T01:41:26.320Z,74.73
2022-10-05T01:43:03.576Z,75.01
2022-10-05T01:44:40.940Z,74.89
2022-10-05T01:46:18.535Z,75.03
2022-10-05T01:47:51.593Z,75.21
2022-10-05T01:49:33.454Z,75.49
2022-10-05T01:51:12.823Z,75.50
2022-10-05T01:52:50.910Z,75.43
2022-10-05T01:54:26.214Z,75.98
2022-10-05T01:56:02.492Z,75.73
2022-10-05T01:57:41.540Z,75.54
2022-10-05T01:59:20.211Z,75.61
2022-10-05T02:01:00.219Z,76.08
2022-10-05T02:02:34.665Z,75.70
2022-10-05T02:04:10.354Z,76.18
2022-10-05T02:05:46.883Z,75.76
2022-10-05T02:07:21.188Z,76.21
2022-10-05T02:08:55.518Z,76.31
2022-10-05T02:10:28.628Z,76.33
2022-10-05T02:12:02.946Z,76.51
2022-10-05T02:13:38.624Z,76.76
2022-10-05T02:15:12.762Z,76.55
2022-10-05T02:16:47.038Z,76.76
2022-10-05T02:18:20.177Z,76.64
2022-10-05T02:19:52.979Z,76.70
2022-10-05T02:21:24.948Z,76.38
2022-10-05T02:22:59.280Z,77.05
2022-10-05T02:24:34.712Z,76.44
2022-10-05T02:26:08.645Z,76.37
2022-10-05T02:27:44.380Z,76.60
2022-10-05T02:29:17.248Z,76.20
2022-10-05T02:30:52.602Z,76.17
2022-10-05T02:32:28.438Z,76.16
2022-10-05T02:34:18.121Z,75.97
2022-10-05T02:35:49.722Z,76.38
2022-10-05T02:37:24.945Z,75.96
2022-10-05T02:38:59.925Z,75.78
2022-10-05T02:40:37.944Z,75.93
2022-10-05T02:42:13.216Z,75.91
2022-10-05T02:43:48.635Z,76.41
2022-10-05T02:45:26.224Z,75.86
2022-10-05T02:47:01.997Z,76.23
2022-10-05T02:48:42.239Z,76.23
2022-10-05T02:50:20.571Z,76.07
2022-10-05T02:51:58.145Z,75.97
2022-10-05T02:53:35.299Z,75.91
2022-10-05T02:55:10.389Z,75.91
2022-10-05T02:56:47.345Z,76.18
2022-10-05T02:58:22.664Z,75.90
2022-10-05T02:59:58.104Z,75.91
2022-10-05T03:01:31.993Z,75.78
2022-10-05T03:03:06.460Z,75.86
2022-10-05T03:04:41.421Z,75.87
2022-10-05T03:06:17.169Z,75.97
2022-10-05T03:07:53.164Z,76.60
2022-10-05T03:09:28.996Z,76.16
2022-10-05T03:11:06.435Z,76.63
2022-10-05T03:12:48.685Z,76.20
2022-10-05T03:14:23.517Z,76.62
2022-10-05T03:16:11.191Z,76.90
2022-10-05T03:17:47.894Z,76.83
2022-10-05T03:19:30.336Z,76.39
2022-10-05T03:21:08.064Z,76.56
2022-10-05T03:22:47.076Z,76.77
2022-10-05T03:24:25.915Z,76.72
2022-10-05T03:26:10.417Z,76.77
2022-10-05T03:27:44.679Z,76.63
2022-10-05T03:29:22.712Z,76.35
2022-10-05T03:30:59.829Z,76.80
2022-10-05T03:32:34.792Z,76.93
2022-10-05T03:34:09.900Z,76.90
2022-10-05T03:35:48.589Z,77.16
2022-10-05T03:37:27.961Z,76.95
2022-10-05T03:39:03.841Z,76.79
2022-10-05T03:40:38.530Z,76.61
2022-10-05T03:42:17.354Z,76.91
2022-10-05T03:44:06.806Z,76.88
2022-10-05T03:45:42.764Z,76.87
2022-10-05T03:47:16.544Z,76.85
2022-10-05T03:48:52.467Z,76.84
2022-10-05T03:50:27.537Z,77.47
2022-10-05T03:52:00.848Z,77.37
2022-10-05T03:53:38.059Z,77.30
2022-10-05T03:55:14.251Z,77.40
2022-10-05T03:56:49.747Z,77.12
2022-10-05T03:58:25.528Z,77.17
2022-10-05T04:00:00.495Z,77.53
2022-10-05T04:01:38.157Z,76.99
2022-10-05T04:03:12.280Z,77.17
2022-10-05T04:04:46.920Z,77.70
2022-10-05T04:06:20.936Z,77.11
2022-10-05T04:07:56.674Z,76.93
2022-10-05T04:09:32.861Z,77.30
2022-10-05T04:11:05.978Z,77.52
2022-10-05T04:12:40.844Z,77.34
2022-10-05T04:14:15.268Z,77.04
2022-10-05T04:15:52.729Z,76.68
2022-10-05T04:17:32.828Z,77.02
2022-10-05T04:19:10.805Z,76.88
2022-10-05T04:20:44.365Z,77.27
2022-10-05T04:22:20.835Z,77.51
2022-10-05T04:23:55.516Z,77.13
2022-10-05T04:25:29.613Z,77.36
2022-10-05T04:27:04.660Z,77.36
2022-10-05T04:28:41.639Z,77.54
2022-10-05T04:30:14.585Z,77.80
2022-10-05T04:31:52.203Z,77.91
2022-10-05T04:33:27.272Z,77.80
2022-10-05T04:35:09.618Z,77.66
2022-10-05T04:36:45.775Z,77.71
2022-10-05T04:38:26.523Z,77.64
2022-10-05T04:40:05.087Z,77.28
2022-10-05T04:41:45.535Z,77.13
2022-10-05T04:43:19.490Z,77.22
2022-10-05T04:45:02.332Z,77.38
2022-10-05T04:46:42.346Z,77.71
2022-10-05T04:48:22.441Z,77.41
2022-10-05T04:50:09.939Z,77.84
2022-10-05T04:51:50.971Z,77.55
2022-10-05T04:53:29.183Z,77.28
2022-10-05T04:55:04.719Z,77.16
2022-10-05T04:56:38.461Z,77.10
2022-10-05T04:58:23.968Z,76.95
2022-10-05T05:00:02.929Z,76.91
2022-10-05T05:01:44.681Z,76.72
2022-10-05T05:03:25.709Z,76.72
2022-10-05T05:05:07.948Z,76.70
2022-10-05T05:06:46.515Z,76.80
2022-10-05T05:08:27.479Z,76.58
2022-10-05T05:10:20.138Z,76.45
2022-10-05T05:12:03.810Z,75.98
2022-10-05T05:14:07.093Z,76.28
2022-10-05T05:15:43.322Z,75.79
2022-10-05T05:17:21.932Z,75.90
2022-10-05T05:19:04.095Z,75.92
2022-10-05T05:20:43.637Z,76.00
2022-10-05T05:22:18.900Z,75.75
2022-10-05T05:23:54.507Z,75.83
2022-10-05T05:25:35.162Z,75.82
2022-10-05T05:27:15.360Z,75.36
2022-10-05T05:28:50.800Z,75.45
2022-10-05T05:30:25.035Z,75.20
2022-10-05T05:32:00.912Z,74.98
2022-10-05T05:33:38.042Z,74.94
2022-10-05T05:35:17.358Z,75.04
2022-10-05T05:36:54.530Z,75.07
2022-10-05T05:38:30.172Z,75.27
2022-10-05T05:40:06.042Z,75.37
2022-10-05T05:41:39.215Z,75.17
2022-10-05T05:43:22.180Z,75.40
2022-10-05T05:44:56.048Z,75.13
2022-10-05T05:46:51.552Z,75.07
2022-10-05T05:48:28.732Z,75.01
2022-10-05T05:50:07.340Z,75.11
2022-10-05T05:51:43.231Z,75.08
2022-10-05T05:53:17.340Z,75.28
2022-10-05T05:54:51.140Z,75.18
2022-10-05T05:56:26.531Z,74.92
2022-10-05T05:58:02.254Z,75.09
2022-10-05T05:59:45.672Z,74.90
2022-10-05T06:01:32.928Z,74.94
2022-10-05T06:03:11.235Z,75.04
2022-10-05T06:04:45.779Z,75.12
2022-10-05T06:06:18.051Z,75.13
2022-10-05T06:07:53.909Z,75.15
2022-10-05T06:09:28.253Z,75.01
2022-10-05T06:11:21.874Z,75.01
2022-10-05T06:12:59.640Z,75.22
2022-10-05T06:14:37.128Z,74.82
2022-10-05T06:16:12.808Z,74.76
2022-10-05T06:17:47.092Z,74.73
2022-10-05T06:19:22.448Z,74.77
2022-10-05T06:20:57.639Z,74.69
2022-10-05T06:22:32.848Z,74.62
2022-10-05T06:24:09.261Z,74.53
2022-10-05T06:25:44.680Z,74.56
2022-10-05T06:27:26.204Z,74.51
2022-10-05T06:29:01.955Z,74.48
2022-10-05T06:30:40.789Z,74.43
2022-10-05T06:32:18.942Z,74.34
2022-10-05T06:33:51.558Z,74.38
2022-10-05T06:35:36.343Z,74.16
2022-10-05T06:37:13.049Z,74.06
2022-10-05T06:38:58.625Z,74.14
2022-10-05T06:40:37.957Z,74.23
2022-10-05T06:42:24.302Z,74.13
2022-10-05T06:44:15.956Z,74.03
2022-10-05T06:46:18.205Z,73.84
2022-10-05T06:48:10.828Z,74.12
2022-10-05T06:50:04.408Z,73.96
2022-10-05T06:51:43.773Z,73.82
2022-10-05T06:53:29.102Z,73.87
2022-10-05T06:55:13.867Z,73.86
2022-10-05T06:56:49.806Z,73.50
2022-10-05T06:58:29.697Z,73.83
2022-10-05T07:00:02.512Z,73.54
2022-10-05T07:01:41.657Z,73.52
2022-10-05T07:03:19.705Z,73.67
2022-10-05T07:05:01.230Z,73.68
2022-10-05T07:06:35.033Z,73.46
2022-10-05T07:08:10.484Z,73.47
2022-10-05T07:09:45.608Z,73.64
2022-10-05T07:11:24.637Z,73.64
2022-10-05T07:13:03.114Z,73.55
2022-10-05T07:14:41.001Z,73.49
2022-10-05T07:16:17.651Z,73.26
2022-10-05T07:17:58.305Z,73.29
2022-10-05T07:19:34.909Z,73.35
2022-10-05T07:21:09.299Z,73.57
2022-10-05T07:22:57.533Z,73.36
2022-10-05T07:24:31.871Z,73.50
2022-10-05T07:26:07.284Z,73.29
2022-10-05T07:27:46.199Z,73.36
2022-10-05T07:29:23.412Z,73.35
2022-10-05T07:30:58.323Z,73.21
2022-10-05T07:32:34.868Z,73.29
2022-10-05T07:34:09.861Z,73.23
2022-10-05T07:36:05.216Z,73.43
2022-10-05T07:37:59.948Z,73.13
2022-10-05T07:39:59.562Z,73.32
2022-10-05T07:41:37.048Z,72.81
2022-10-05T07:43:19.014Z,73.19
2022-10-05T07:44:53.593Z,72.74
2022-10-05T07:46:28.309Z,72.81
2022-10-05T07:48:04.647Z,72.52
2022-10-05T07:49:40.035Z,72.85
2022-10-05T07:51:15.824Z,72.76
2022-10-05T07:52:50.034Z,72.55
2022-10-05T07:54:25.529Z,72.30
2022-10-05T07:56:02.080Z,71.94
2022-10-05T07:57:38.306Z,72.27
2022-10-05T07:59:14.552Z,72.33
2022-10-05T08:00:54.527Z,71.93
2022-10-05T08:02:28.346Z,71.98
2022-10-05T08:04:03.291Z,71.75
2022-10-05T08:05:37.218Z,71.66
2022-10-05T08:07:13.308Z,71.60
2022-10-05T08:08:49.443Z,71.89
2022-10-05T08:10:26.864Z,71.66
2022-10-05T08:12:03.775Z,71.70
2022-10-05T08:13:38.536Z,71.75
2022-10-05T08:15:14.753Z,71.38
2022-10-05T08:16:48.423Z,71.05
2022-10-05T08:18:25.261Z,70.81
2022-10-05T08:20:03.049Z,70.88
2022-10-05T08:21:36.421Z,70.88
2022-10-05T08:23:13.957Z,70.44
2022-10-05T08:24:49.271Z,70.50
2022-10-05T08:26:24.184Z,70.19
2022-10-05T08:27:59.466Z,70.18
2022-10-05T08:29:33.243Z,69.62
2022-10-05T08:31:11.013Z,70.11
2022-10-05T08:32:47.616Z,69.72
2022-10-05T08:34:22.993Z,69.31
2022-10-05T08:36:01.945Z,69.84
2022-10-05T08:37:36.077Z,69.75
2022-10-05T08:39:12.383Z,69.39
2022-10-05T08:41:04.589Z,69.04
2022-10-05T08:42:57.593Z,68.97
2022-10-05T08:44:45.117Z,68.79
2022-10-05T08:46:37.370Z,68.71
2022-10-05T08:48:33.820Z,68.79
2022-10-05T08:50:17.868Z,68.84
2022-10-05T08:51:57.085Z,68.82
2022-10-05T08:53:37.941Z,68.77
2022-10-05T08:55:22.191Z,68.50
2022-10-05T08:57:02.340Z,68.17
2022-10-05T08:58:40.270Z,68.34
2022-10-05T09:00:17.322Z,68.53
2022-10-05T09:02:02.096Z,68.54
2022-10-05T09:03:48.519Z,68.42
2022-10-05T09:05:28.674Z,68.24
2022-10-05T09:07:13.667Z,68.61
2022-10-05T09:08:56.727Z,68.49
2022-10-05T09:10:48.853Z,68.40
2022-10-05T09:12:38.199Z,68.44
2022-10-05T09:14:24.526Z,68.33
2022-10-05T09:16:08.805Z,68.10
2022-10-05T09:17:51.351Z,67.75
2022-10-05T09:19:55.876Z,67.61
2022-10-05T09:21:39.079Z,67.53
2022-10-05T09:23:13.551Z,67.66
2022-10-05T09:24:54.157Z,67.22
2022-10-05T09:26:41.772Z,66.57
2022-10-05T09:28:31.215Z,66.25
2022-10-05T09:30:19.006Z,66.28
2022-10-05T09:31:58.664Z,66.12
2022-10-05T09:33:40.858Z,65.98
2022-10-05T09:35:22.244Z,65.79
2022-10-05T09:37:08.681Z,65.68
2022-10-05T09:38:53.384Z,65.67
2022-10-05T09:40:44.561Z,65.41
2022-10-05T09:42:38.430Z,65.34
2022-10-05T09:44:22.702Z,65.54
2022-10-05T09:46:29.325Z,65.30
2022-10-05T09:48:21.838Z,65.48
2022-10-05T09:50:09.875Z,65.54
2022-10-05T09:51:59.804Z,65.36
2022-10-05T09:53:52.103Z,64.76
2022-10-05T09:55:36.113Z,64.89
2022-10-05T09:57:22.187Z,64.93
2022-10-05T09:59:17.682Z,64.94
2022-10-05T10:01:09.435Z,64.28
2022-10-05T10:03:02.468Z,64.55
2022-10-05T10:04:48.995Z,64.05
2022-10-05T10:06:25.301Z,63.87
2022-10-05T10:08:20.178Z,63.92
2022-10-05T10:09:59.925Z,63.95
2022-10-05T10:11:38.646Z,63.93
2022-10-05T10:13:24.390Z,64.00
2022-10-05T10:15:29.225Z,63.66
2022-10-05T10:17:06.886Z,63.40
2022-10-05T10:19:02.337Z,63.33
2022-10-05T10:20:45.532Z,63.12
2022-10-05T10:22:31.885Z,63.42
2022-10-05T10:24:16.055Z,63.39
2022-10-05T10:26:00.690Z,63.24
2022-10-05T10:27:39.059Z,62.75
2022-10-05T10:29:31.545Z,62.49
2022-10-05T10:31:23.131Z,62.41
2022-10-05T10:33:13.690Z,62.07
2022-10-05T10:35:00.114Z,61.90
2022-10-05T10:36:47.216Z,61.89
2022-10-05T10:38:27.620Z,61.70
2022-10-05T10:40:12.498Z,60.95
2022-10-05T10:42:04.802Z,61.09
2022-10-05T10:43:47.125Z,61.14
2022-10-05T10:45:21.088Z,60.66
2022-10-05T10:46:59.561Z,59.91
2022-10-05T10:48:49.053Z,60.02
2022-10-05T10:50:44.772Z,59.68
2022-10-05T10:52:25.562Z,59.84
2022-10-05T10:54:18.192Z,59.27
2022-10-05T10:56:01.381Z,59.14
2022-10-05T10:57:40.299Z,59.15
2022-10-05T10:59:30.767Z,58.78
2022-10-05T11:01:08.388Z,58.06
2022-10-05T11:02:53.121Z,57.50
2022-10-05T11:04:37.385Z,57.67
2022-10-05T11:06:17.100Z,57.22
2022-10-05T11:08:01.597Z,56.71
2022-10-05T11:09:50.456Z,56.28
2022-10-05T11:11:36.915Z,56.66
2022-10-05T11:13:16.875Z,56.83
2022-10-05T11:15:02.419Z,56.89
2022-10-05T11:16:52.389Z,56.03
2022-10-05T11:18:28.716Z,55.80
2022-10-05T11:20:09.381Z,55.45
2022-10-05T11:21:48.333Z,55.83
2022-10-05T11:23:29.709Z,55.46
2022-10-05T11:25:19.152Z,55.70
2022-10-05T11:27:09.339Z,55.88
2022-10-05T11:28:45.997Z,56.13
2022-10-05T11:30:25.589Z,55.98
2022-10-05T11:32:13.752Z,56.53
2022-10-05T11:34:09.755Z,56.65
2022-10-05T11:35:55.388Z,56.96
2022-10-05T11:37:44.625Z,56.63
2022-10-05T11:39:35.109Z,57.00
2022-10-05T11:41:16.626Z,56.65
2022-10-05T11:43:02.222Z,57.07
2022-10-05T11:44:51.741Z,56.61
2022-10-05T11:46:27.179Z,56.47
2022-10-05T11:48:20.460Z,56.50
2022-10-05T11:49:55.748Z,56.75
2022-10-05T11:51:38.271Z,56.25
2022-10-05T11:53:14.636Z,56.03
2022-10-05T11:55:10.453Z,56.13
2022-10-05T11:56:50.712Z,55.49
2022-10-05T11:58:28.210Z,55.40
2022-10-05T12:00:07.002Z,55.47
2022-10-05T12:01:45.919Z,55.66
2022-10-05T12:03:22.744Z,55.91
2022-10-05T12:04:58.766Z,56.00
2022-10-05T12:06:51.743Z,55.68
2022-10-05T12:08:28.695Z,56.18
2022-10-05T12:10:14.216Z,56.35
2022-10-05T12:11:58.373Z,56.46
2022-10-05T12:13:36.655Z,56.23
2022-10-05T12:15:17.328Z,55.54
2022-10-05T12:16:50.995Z,55.28
2022-10-05T12:18:25.519Z,55.05
2022-10-05T12:19:58.271Z,55.45
2022-10-05T12:21:36.204Z,55.52
2022-10-05T12:23:13.280Z,55.27
2022-10-05T12:25:02.462Z,55.40
2022-10-05T12:26:36.459Z,55.14
2022-10-05T12:28:11.979Z,54.49
2022-10-05T12:29:47.063Z,53.41
2022-10-05T12:31:23.251Z,53.33
2022-10-05T12:33:02.077Z,52.41
2022-10-05T12:34:38.393Z,51.63
2022-10-05T12:36:14.069Z,51.40
2022-10-05T12:37:50.545Z,51.38
2022-10-05T12:39:26.003Z,49.98
2022-10-05T12:41:04.233Z,49.62
2022-10-05T12:42:41.917Z,49.28
2022-10-05T12:44:18.938Z,48.97
2022-10-05T12:45:57.192Z,48.83
2022-10-05T12:47:32.875Z,48.90
2022-10-05T12:49:14.805Z,48.77
2022-10-05T12:50:49.143Z,48.45
2022-10-05T12:52:31.545Z,47.95
2022-10-05T12:54:07.853Z,47.43
2022-10-05T12:55:41.906Z,47.74
2022-10-05T12:57:19.705Z,47.78
2022-10-05T12:58:53.649Z,47.44
2022-10-05T13:00:27.295Z,47.38
2022-10-05T13:02:01.937Z,46.23
2022-10-05T13:03:36.827Z,45.39
2022-10-05T13:05:31.106Z,45.56
2022-10-05T13:07:09.728Z,44.95
2022-10-05T13:08:48.605Z,45.26
2022-10-05T13:10:27.934Z,44.35
2022-10-05T13:12:03.799Z,43.75
2022-10-05T13:13:43.335Z,43.72
2022-10-05T13:15:19.855Z,43.79
2022-10-05T13:16:56.705Z,43.36
2022-10-05T13:18:33.166Z,42.87
2022-10-05T13:20:13.982Z,42.91
2022-10-05T13:21:55.249Z,42.54
2022-10-05T13:23:31.328Z,42.04
2022-10-05T13:25:08.551Z,41.46
2022-10-05T13:26:42.032Z,40.79
2022-10-05T13:28:16.626Z,41.02
2022-10-05T13:29:54.295Z,40.32
2022-10-05T13:31:28.678Z,40.24
2022-10-05T13:33:06.544Z,39.91
2022-10-05T13:34:41.693Z,39.74
2022-10-05T13:36:16.253Z,39.91
2022-10-05T13:37:52.873Z,39.43
2022-10-05T13:39:29.767Z,39.53
2022-10-05T13:41:05.105Z,39.26
2022-10-05T13:42:42.394Z,38.62
2022-10-05T13:44:18.086Z,38.57
2022-10-05T13:45:55.739Z,38.64
2022-10-05T13:47:31.655Z,38.75
2022-10-05T13:49:15.356Z,38.64
2022-10-05T13:50:52.097Z,38.49
2022-10-05T13:52:29.084Z,38.07
2022-10-05T13:54:04.781Z,37.77
2022-10-05T13:55:40.644Z,37.98
2022-10-05T13:57:21.109Z,38.18
2022-10-05T13:58:59.457Z,37.71
2022-10-05T14:00:32.156Z,38.02
2022-10-05T14:02:05.951Z,38.16
2022-10-05T14:03:37.979Z,37.90
2022-10-05T14:05:16.267Z,38.30
2022-10-05T14:06:48.797Z,38.15
2022-10-05T14:08:20.675Z,38.51
2022-10-05T14:09:52.155Z,38.62
2022-10-05T14:11:26.730Z,38.92
2022-10-05T14:12:58.203Z,38.77
2022-10-05T14:14:31.499Z,39.09
2022-10-05T14:16:14.592Z,38.85
2022-10-05T14:17:46.209Z,39.48
2022-10-05T14:19:22.134Z,39.15
2022-10-05T14:21:14.657Z,37.81
2022-10-05T14:22:49.140Z,36.38
2022-10-05T14:24:42.426Z,36.74
2022-10-05T14:26:30.304Z,37.36
2022-10-05T14:28:03.276Z,38.18
2022-10-05T14:29:36.449Z,38.71
2022-10-05T14:31:13.251Z,38.98
2022-10-05T14:32:48.955Z,39.37
2022-10-05T14:34:29.365Z,40.08
2022-10-05T14:36:01.187Z,40.44
2022-10-05T14:37:43.356Z,40.93
2022-10-05T14:39:14.816Z,41.11
2022-10-05T14:41:01.854Z,41.68
2022-10-05T14:42:46.259Z,41.22
2022-10-05T14:44:26.623Z,41.77
2022-10-05T14:45:58.996Z,42.07
2022-10-05T14:47:31.489Z,42.05
2022-10-05T14:49:20.984Z,42.37
2022-10-05T14:50:54.841Z,42.31
2022-10-05T14:52:32.280Z,42.49
2022-10-05T14:54:18.669Z,42.71
2022-10-05T14:56:10.928Z,43.35
2022-10-05T14:57:46.123Z,43.52
2022-10-05T14:59:29.240Z,43.95
2022-10-05T15:01:02.666Z,43.99
2022-10-05T15:02:47.883Z,44.58
2022-10-05T15:04:27.284Z,44.45
2022-10-05T15:06:00.211Z,45.05
2022-10-05T15:07:36.023Z,45.13
2022-10-05T15:09:30.695Z,45.13
2022-10-05T15:11:05.312Z,45.68
2022-10-05T15:12:39.655Z,45.51
2022-10-05T15:14:15.074Z,45.90
2022-10-05T15:15:49.966Z,45.69
2022-10-05T15:17:26.960Z,45.91
2022-10-05T15:19:03.306Z,45.74
2022-10-05T15:20:37.496Z,45.86
2022-10-05T15:22:18.625Z,46.21
2022-10-05T15:23:52.884Z,46.22
2022-10-05T15:25:30.444Z,46.70
2022-10-05T15:27:04.060Z,47.25
2022-10-05T15:28:40.425Z,47.47
2022-10-05T15:30:13.969Z,47.29
2022-10-05T15:31:50.937Z,47.65
2022-10-05T15:33:26.517Z,48.12
2022-10-05T15:35:20.261Z,48.01
2022-10-05T15:36:56.560Z,48.37
2022-10-05T15:38:31.998Z,48.79
2022-10-05T15:40:05.832Z,48.57
2022-10-05T15:41:50.564Z,48.67
2022-10-05T15:43:23.203Z,48.45
2022-10-05T15:44:59.668Z,48.27
2022-10-05T15:46:34.441Z,48.69
2022-10-05T15:48:08.954Z,48.79
2022-10-05T15:49:46.715Z,48.87
2022-10-05T15:51:25.467Z,48.66
2022-10-05T15:53:02.183Z,48.39
2022-10-05T15:54:52.485Z,48.52
2022-10-05T15:56:26.221Z,48.83
2022-10-05T15:58:08.526Z,48.48
2022-10-05T15:59:43.470Z,48.75
2022-10-05T16:01:17.110Z,48.75
2022-10-05T16:02:52.007Z,48.89
2022-10-05T16:04:30.074Z,49.11
2022-10-05T16:06:24.854Z,49.71
2022-10-05T16:08:14.526Z,50.10
2022-10-05T16:09:50.338Z,49.72
2022-10-05T16:11:30.021Z,50.01
2022-10-05T16:13:09.349Z,49.97
2022-10-05T16:15:00.387Z,49.93
2022-10-05T16:16:37.339Z,49.84
2022-10-05T16:18:24.134Z,49.97
2022-10-05T16:21:31.829Z,50.07
2022-10-05T16:23:06.810Z,50.26
2022-10-05T16:24:50.145Z,50.44
2022-10-05T16:26:31.617Z,50.81
2022-10-05T16:28:11.532Z,50.77
2022-10-05T16:29:49.427Z,51.11
2022-10-05T16:31:25.146Z,51.26
2022-10-05T16:33:02.472Z,51.34
2022-10-05T16:34:45.076Z,51.52
2022-10-05T16:36:22.500Z,51.81
2022-10-05T16:38:00.349Z,51.94
2022-10-05T16:39:48.449Z,52.13
2022-10-05T16:41:23.900Z,52.38
2022-10-05T16:43:00.672Z,52.66
2022-10-05T16:44:38.787Z,52.96
2022-10-05T16:46:15.183Z,53.05
2022-10-05T16:47:49.305Z,53.41
2022-10-05T16:49:27.721Z,53.95
2022-10-05T16:51:10.554Z,54.18
2022-10-05T16:52:44.232Z,54.24
2022-10-05T16:54:18.284Z,54.11
2022-10-05T16:55:52.315Z,54.11
2022-10-05T16:57:25.933Z,53.70
2022-10-05T16:59:04.768Z,53.81
2022-10-05T17:00:48.556Z,53.61
2022-10-05T17:02:27.986Z,53.49
2022-10-05T17:04:07.634Z,53.62
2022-10-05T17:05:57.233Z,53.47
2022-10-05T17:07:39.288Z,53.41
2022-10-05T17:09:16.421Z,53.09
2022-10-05T17:10:56.753Z,53.05
2022-10-05T17:12:35.427Z,53.01
2022-10-05T17:14:18.807Z,53.06
2022-10-05T17:16:00.681Z,53.31
2022-10-05T17:17:46.956Z,53.51
2022-10-05T17:19:32.130Z,53.72
2022-10-05T17:21:07.900Z,53.90
2022-10-05T17:22:48.009Z,53.83
2022-10-05T17:24:25.210Z,54.30
2022-10-05T17:26:02.087Z,54.40
2022-10-05T17:27:35.192Z,54.62
2022-10-05T17:29:13.877Z,54.85
2022-10-05T17:30:48.659Z,54.85
2022-10-05T17:32:35.996Z,55.05
2022-10-05T17:34:28.484Z,55.32
2022-10-05T17:36:17.916Z,55.25
2022-10-05T17:38:14.063Z,55.16
2022-10-05T17:39:47.614Z,55.13
2022-10-05T17:41:23.282Z,54.96
2022-10-05T17:42:58.009Z,54.93
2022-10-05T17:44:30.661Z,55.02
2022-10-05T17:46:02.902Z,55.00
2022-10-05T17:47:49.251Z,54.95
2022-10-05T17:49:25.654Z,55.21
2022-10-05T17:51:15.810Z,55.05
2022-10-05T17:53:25.767Z,55.03
2022-10-05T17:55:28.164Z,55.19
2022-10-05T17:57:18.356Z,55.08
2022-10-05T17:58:58.853Z,54.99
2022-10-05T18:00:48.305Z,55.15
2022-10-05T18:02:21.445Z,55.68
2022-10-05T18:03:53.020Z,55.71
2022-10-05T18:05:27.688Z,55.74
2022-10-05T18:07:00.901Z,55.87
2022-10-05T18:08:37.679Z,56.03
2022-10-05T18:10:22.549Z,56.09
2022-10-05T18:12:08.657Z,55.96
2022-10-05T18:13:45.411Z,56.34
2022-10-05T18:15:40.881Z,56.44
2022-10-05T18:17:13.062Z,56.27
2022-10-05T18:18:55.772Z,56.50
2022-10-05T18:20:31.982Z,56.84
2022-10-05T18:22:10.167Z,56.71
2022-10-05T18:23:46.304Z,56.96
2022-10-05T18:25:22.197Z,56.78
2022-10-05T18:26:59.387Z,56.90
2022-10-05T18:28:39.166Z,57.14
2022-10-05T18:30:17.331Z,57.00
2022-10-05T18:31:55.149Z,57.01
2022-10-05T18:33:47.243Z,56.97
2022-10-05T18:35:21.681Z,57.07
2022-10-05T18:37:07.005Z,57.09
2022-10-05T18:38:43.686Z,56.99
2022-10-05T18:40:24.354Z,57.16
2022-10-05T18:42:01.547Z,57.34
2022-10-05T18:43:37.926Z,57.35
2022-10-05T18:45:20.427Z,57.21
2022-10-05T18:46:55.374Z,57.33
2022-10-05T18:48:31.064Z,57.37
2022-10-05T18:50:14.604Z,57.62
2022-10-05T18:51:51.965Z,57.50
2022-10-05T18:53:30.187Z,57.54
2022-10-05T18:55:05.341Z,57.73
2022-10-05T18:56:39.018Z,57.67
2022-10-05T18:58:16.373Z,57.50
2022-10-05T18:59:51.830Z,57.57
2022-10-05T19:01:41.549Z,57.56
2022-10-05T19:03:19.060Z,57.54
2022-10-05T19:04:56.458Z,57.53
2022-10-05T19:06:29.844Z,57.44
2022-10-05T19:08:08.578Z,57.36
2022-10-05T19:09:49.557Z,57.27
2022-10-05T19:11:26.169Z,57.20
2022-10-05T19:13:05.011Z,57.29
2022-10-05T19:14:41.155Z,57.12
2022-10-05T19:16:19.679Z,57.43
2022-10-05T19:17:58.592Z,56.99
2022-10-05T19:19:43.730Z,57.37
2022-10-05T19:21:23.152Z,57.21
2022-10-05T19:23:05.174Z,57.14
2022-10-05T19:24:42.488Z,57.42
2022-10-05T19:26:17.942Z,57.37
2022-10-05T19:27:55.574Z,57.34
2022-10-05T19:29:36.339Z,57.55
2022-10-05T19:31:14.484Z,57.35
2022-10-05T19:32:53.836Z,57.22
2022-10-05T19:34:33.128Z,57.54
2022-10-05T19:36:12.466Z,57.47
2022-10-05T19:37:49.675Z,57.77
2022-10-05T19:39:27.955Z,57.53
2022-10-05T19:41:05.651Z,57.56
2022-10-05T19:42:46.069Z,58.04
2022-10-05T19:44:23.029Z,57.89
2022-10-05T19:46:00.289Z,58.12
2022-10-05T19:47:41.134Z,58.13
2022-10-05T19:49:12.961Z,58.01
2022-10-05T19:50:52.762Z,58.16
2022-10-05T19:52:25.462Z,58.21
2022-10-05T19:54:00.121Z,58.12
2022-10-05T19:55:34.551Z,58.44
2022-10-05T19:57:16.863Z,58.24
2022-10-05T19:58:50.214Z,58.44
2022-10-05T20:00:24.599Z,58.47
2022-10-05T20:01:57.011Z,58.84
2022-10-05T20:03:29.674Z,58.75
2022-10-05T20:05:06.434Z,58.58
2022-10-05T20:06:39.397Z,58.83
2022-10-05T20:08:14.845Z,58.80
2022-10-05T20:09:50.948Z,58.89
2022-10-05T20:11:23.329Z,59.14
2022-10-05T20:12:57.365Z,59.18
2022-10-05T20:14:31.132Z,59.26
2022-10-05T20:16:41.561Z,59.54
2022-10-05T20:18:54.375Z,59.42
2022-10-05T20:20:30.930Z,59.42
2022-10-05T20:22:17.267Z,59.64
2022-10-05T20:24:05.421Z,59.85
2022-10-05T20:25:37.051Z,60.00
2022-10-05T20:27:28.517Z,60.18
2022-10-05T20:28:59.961Z,60.18
2022-10-05T20:30:33.816Z,60.27
2022-10-05T20:32:08.595Z,60.32
2022-10-05T20:33:40.220Z,60.31
2022-10-05T20:35:11.771Z,60.22
2022-10-05T20:36:44.481Z,60.17
2022-10-05T20:38:15.925Z,60.54
2022-10-05T20:39:47.922Z,60.48
2022-10-05T20:41:19.358Z,60.31
2022-10-05T20:42:51.564Z,60.26
2022-10-05T20:44:22.989Z,60.69
2022-10-05T20:45:55.764Z,60.66
2022-10-05T20:47:27.266Z,60.50
2022-10-05T20:48:58.781Z,60.60
2022-10-05T20:50:32.668Z,60.86
2022-10-05T20:52:05.469Z,60.56
2022-10-05T20:53:36.919Z,60.70
2022-10-05T20:55:09.685Z,60.92
2022-10-05T20:56:42.090Z,60.87
2022-10-05T20:58:13.514Z,60.86
2022-10-05T20:59:45.708Z,60.98
2022-10-05T21:01:19.670Z,60.71
2022-10-05T21:02:51.365Z,60.69
2022-10-05T21:04:24.254Z,60.59
2022-10-05T21:05:55.756Z,60.59
2022-10-05T21:07:27.203Z,60.57
2022-10-05T21:08:59.121Z,60.76
2022-10-05T21:10:30.550Z,60.86
2022-10-05T21:12:03.119Z,60.68
2022-10-05T21:13:34.871Z,61.01
2022-10-05T21:15:06.835Z,61.23
2022-10-05T21:16:41.180Z,61.39